Terminal Aerodrome Forecast
Issued by NWS

Home | Current Version | Previous Version | Text Only | Print | Product List | Glossary On
Versions: 1 2 3 4 5 6 7 8 9 10 11 12 13 14 15 16 17 18 19 20 21 22 23 24 25 26 27 28 29 30 31 32 33 34 35 36 37
000
FTUS43 KPAH 071139
TAFOWB
TAF
KOWB 071139Z 0712/0812 21012KT 4SM SHRA BR OVC016
      TEMPO 0712/0716 2SM TSRA BR BKN009CB
     FM071600 20010KT P6SM BKN035
     FM072200 22010KT 4SM TSRA BKN020CB
     FM080800 29005KT 5SM BR OVC007=

USA.gov is the U.S. government's official web portal to all federal, state and local government web resources and services.